Time;durP1;ratioP1;P1;durP2;ratioP2;P2;SDS_P1;SDS_P2;PMS_P1;PMS_P2;Temp;Humidity;BMP_temperature;BMP_pressure;BME280_temperature;BME280_humidity;BME280_pressure;Samples;Min_cycle;Max_cycle;Signal;HPM_P1;HPM_P2
2023/12/14 00:01:34;;;;;;;14.95;7.07;;;6.70;99.90;;;;;;6276026;22;20008;-80
2023/12/14 00:03:59;;;;;;;16.63;7.40;;;6.70;99.90;;;;;;6251355;22;20000;-80
2023/12/14 00:06:25;;;;;;;15.80;6.70;;;6.80;99.90;;;;;;6276361;22;20091;-80
2023/12/14 00:08:51;;;;;;;17.42;6.90;;;6.80;99.90;;;;;;6276349;22;19999;-82
2023/12/14 00:11:17;;;;;;;13.80;6.10;;;6.80;99.90;;;;;;6275276;22;20018;-79
2023/12/14 00:13:42;;;;;;;13.02;6.50;;;6.80;99.90;;;;;;6249631;22;20008;-80
2023/12/14 00:16:08;;;;;;;14.35;6.22;;;6.80;99.90;;;;;;6249888;22;20011;-80
2023/12/14 00:18:35;;;;;;;11.57;5.07;;;6.80;99.90;;;;;;6260391;22;20002;-80
2023/12/14 00:21:02;;;;;;;11.07;5.55;;;6.80;99.90;;;;;;6275268;22;20413;-80
2023/12/14 00:23:28;;;;;;;17.10;5.35;;;6.80;99.90;;;;;;6279835;22;20029;-80
2023/12/14 00:25:53;;;;;;;16.25;5.57;;;6.70;99.90;;;;;;6280185;22;20004;-80
2023/12/14 00:28:19;;;;;;;17.88;5.72;;;6.70;99.90;;;;;;6257123;22;20023;-82
2023/12/14 00:30:45;;;;;;;13.52;6.13;;;6.70;99.90;;;;;;6255735;22;20502;-82
2023/12/14 00:33:11;;;;;;;18.95;6.13;;;6.60;99.90;;;;;;6282633;22;20050;-83
2023/12/14 00:35:36;;;;;;;14.10;5.50;;;6.60;99.90;;;;;;6282987;22;20090;-83
2023/12/14 00:38:02;;;;;;;11.95;6.05;;;6.50;99.90;;;;;;6259469;22;20445;-83
2023/12/14 00:40:28;;;;;;;12.65;5.78;;;6.50;99.90;;;;;;6296054;22;20027;-81
2023/12/14 00:42:53;;;;;;;15.25;6.35;;;6.50;99.90;;;;;;6296056;22;20014;-82
2023/12/14 00:45:19;;;;;;;12.43;5.78;;;6.50;99.90;;;;;;6248109;22;20028;-82
2023/12/14 00:47:45;;;;;;;13.02;5.25;;;6.50;99.90;;;;;;6247520;22;20038;-80
2023/12/14 00:50:10;;;;;;;23.30;6.82;;;6.60;99.90;;;;;;6273557;22;20058;-80
2023/12/14 00:52:36;;;;;;;11.70;5.35;;;6.60;99.90;;;;;;6278155;22;20401;-82
2023/12/14 00:55:02;;;;;;;12.98;5.30;;;6.60;99.90;;;;;;6279933;22;20003;-80
2023/12/14 00:57:28;;;;;;;12.38;6.13;;;6.60;99.90;;;;;;6278272;22;20431;-79
2023/12/14 00:59:54;;;;;;;14.43;6.20;;;6.70;99.90;;;;;;6277056;22;20010;-80
2023/12/14 01:02:19;;;;;;;9.88;5.95;;;6.70;99.90;;;;;;6277149;22;20648;-80
2023/12/14 01:04:45;;;;;;;12.10;5.95;;;6.60;99.90;;;;;;6278345;22;20006;-80
2023/12/14 01:07:11;;;;;;;16.05;5.95;;;6.60;99.90;;;;;;6277279;22;20065;-82
2023/12/14 01:09:36;;;;;;;13.65;5.80;;;6.70;99.90;;;;;;6276679;22;20037;-80
2023/12/14 01:12:03;;;;;;;12.48;5.82;;;6.60;99.90;;;;;;6252757;22;20000;-82
2023/12/14 01:14:28;;;;;;;12.63;5.15;;;6.60;99.90;;;;;;6275560;22;20059;-83
2023/12/14 01:16:54;;;;;;;15.63;6.13;;;6.60;99.90;;;;;;6250033;22;20027;-83
2023/12/14 01:19:20;;;;;;;14.95;6.20;;;6.60;99.90;;;;;;6277093;22;20057;-83
2023/12/14 01:21:46;;;;;;;13.52;5.43;;;6.60;99.90;;;;;;6277424;22;20570;-83
2023/12/14 01:24:11;;;;;;;11.57;5.85;;;6.60;99.90;;;;;;6279457;22;20000;-82
2023/12/14 01:26:37;;;;;;;14.43;5.32;;;6.60;99.90;;;;;;6279117;22;20012;-80
2023/12/14 01:29:03;;;;;;;16.05;6.53;;;6.70;99.90;;;;;;6253425;22;20015;-80
2023/12/14 01:31:28;;;;;;;13.65;6.00;;;6.70;99.90;;;;;;6276573;22;20004;-83
2023/12/14 01:33:54;;;;;;;10.57;6.18;;;6.70;99.90;;;;;;6278718;22;20130;-80
2023/12/14 01:36:25;;;;;;;11.30;6.28;;;6.70;99.90;;;;;;6279013;22;20067;-80
2023/12/14 01:38:51;;;;;;;15.10;6.65;;;6.70;99.90;;;;;;6277689;22;20003;-82
2023/12/14 01:41:17;;;;;;;12.80;5.75;;;6.60;99.90;;;;;;6277328;22;20100;-82
2023/12/14 01:43:43;;;;;;;11.73;5.50;;;6.70;99.90;;;;;;6259702;22;20028;-62
2023/12/14 01:46:09;;;;;;;11.90;5.35;;;6.70;99.90;;;;;;6240651;23;20001;-62
2023/12/14 01:48:34;;;;;;;12.23;5.80;;;6.60;99.90;;;;;;6242472;22;20450;-62
2023/12/14 01:51:00;;;;;;;14.07;5.20;;;6.60;99.90;;;;;;6242662;23;20139;-61
2023/12/14 01:53:26;;;;;;;11.75;5.22;;;6.60;99.90;;;;;;6242897;23;20059;-61
2023/12/14 01:55:52;;;;;;;13.60;5.90;;;6.60;99.90;;;;;;6242741;23;20012;-61
2023/12/14 01:58:18;;;;;;;15.13;5.78;;;6.60;99.90;;;;;;6242538;22;20000;-61
2023/12/14 02:01:36;;;;;;;18.45;6.82;;;6.50;99.90;;;;;;6240055;23;20011;-61
2023/12/14 02:04:01;;;;;;;10.32;6.05;;;6.50;99.90;;;;;;6177977;23;20013;-62
2023/12/14 02:06:27;;;;;;;17.63;6.30;;;6.50;99.90;;;;;;6228729;23;20317;-62
2023/12/14 02:08:53;;;;;;;10.60;5.43;;;6.50;99.90;;;;;;6242216;22;20004;-62
2023/12/14 02:11:18;;;;;;;9.00;5.07;;;6.50;99.90;;;;;;6241854;23;20084;-61
2023/12/14 02:13:44;;;;;;;15.38;5.85;;;6.50;99.90;;;;;;6242430;23;20766;-62
2023/12/14 02:16:09;;;;;;;19.67;7.45;;;6.50;99.90;;;;;;6241254;23;20459;-61
2023/12/14 02:18:35;;;;;;;15.15;6.05;;;6.50;99.90;;;;;;6244264;22;20004;-62
2023/12/14 02:21:01;;;;;;;12.23;5.32;;;6.50;99.90;;;;;;6243855;23;20007;-61
2023/12/14 02:23:26;;;;;;;12.60;7.22;;;6.50;99.90;;;;;;6242937;23;20003;-62
2023/12/14 02:25:52;;;;;;;11.57;6.15;;;6.50;99.90;;;;;;6243200;23;20005;-62
2023/12/14 02:28:17;;;;;;;9.50;6.40;;;6.50;99.90;;;;;;6244112;22;20059;-61
2023/12/14 02:30:44;;;;;;;13.98;6.25;;;6.50;99.90;;;;;;6243432;23;20004;-61
2023/12/14 02:33:09;;;;;;;15.52;6.90;;;6.50;99.90;;;;;;6243988;23;20133;-62
2023/12/14 02:35:35;;;;;;;14.00;7.38;;;6.50;99.90;;;;;;6242964;23;20440;-62
2023/12/14 02:38:01;;;;;;;12.02;6.60;;;6.50;99.90;;;;;;6244353;22;20332;-64
2023/12/14 02:40:26;;;;;;;15.73;5.65;;;6.50;99.90;;;;;;6243568;23;20000;-62
2023/12/14 02:42:52;;;;;;;13.55;7.30;;;6.60;99.90;;;;;;6243451;23;20012;-62
2023/12/14 02:45:17;;;;;;;18.30;7.07;;;6.60;99.90;;;;;;6243242;23;20375;-61
2023/12/14 02:47:43;;;;;;;12.68;6.63;;;6.60;99.90;;;;;;6241898;22;20224;-61
2023/12/14 02:50:09;;;;;;;17.33;8.65;;;6.60;99.90;;;;;;6241491;23;20012;-61
2023/12/14 02:52:35;;;;;;;14.98;6.95;;;6.70;99.90;;;;;;6243754;23;20004;-62
2023/12/14 02:55:00;;;;;;;22.85;11.68;;;6.70;99.90;;;;;;6243739;23;20035;-62
2023/12/14 02:57:26;;;;;;;29.70;13.30;;;6.80;99.90;;;;;;6243350;22;20004;-62
2023/12/14 02:59:51;;;;;;;27.58;13.13;;;6.90;99.90;;;;;;6242869;23;20004;-62
2023/12/14 03:02:17;;;;;;;30.10;13.27;;;6.90;99.90;;;;;;6242174;23;20003;-61
2023/12/14 03:04:43;;;;;;;33.08;14.77;;;7.00;99.90;;;;;;6242544;23;20337;-61
2023/12/14 03:07:09;;;;;;;31.95;15.02;;;7.10;99.90;;;;;;6243411;22;20425;-61
2023/12/14 03:09:34;;;;;;;37.60;14.75;;;7.10;99.90;;;;;;6242346;23;20008;-62
2023/12/14 03:12:01;;;;;;;41.22;15.07;;;7.10;99.90;;;;;;6241975;23;20000;-62
2023/12/14 03:14:31;;;;;;;40.40;15.27;;;7.20;99.90;;;;;;6241362;23;20701;-62
2023/12/14 03:16:56;;;;;;;32.90;12.88;;;7.20;99.90;;;;;;6242365;22;20488;-61
2023/12/14 03:19:22;;;;;;;43.67;15.32;;;7.30;99.90;;;;;;6242476;23;20038;-61
2023/12/14 03:21:48;;;;;;;37.95;15.32;;;7.30;99.90;;;;;;6242245;23;20000;-62
2023/12/14 03:24:13;;;;;;;34.97;14.52;;;7.30;99.90;;;;;;6241519;23;20000;-61
2023/12/14 03:26:39;;;;;;;43.28;15.68;;;7.40;99.90;;;;;;6242112;22;20054;-62
2023/12/14 03:29:04;;;;;;;36.30;14.95;;;7.40;99.90;;;;;;6242989;23;20004;-58
2023/12/14 03:31:30;;;;;;;41.47;15.98;;;7.40;99.90;;;;;;6241694;23;20423;-62
2023/12/14 03:33:56;;;;;;;44.53;16.30;;;7.30;99.90;;;;;;6242092;23;20015;-62
2023/12/14 03:36:25;;;;;;;45.33;14.52;;;7.40;99.90;;;;;;6242607;23;20004;-62
2023/12/14 03:38:51;;;;;;;43.08;14.93;;;7.40;99.90;;;;;;6241405;22;20022;-62
2023/12/14 03:41:16;;;;;;;36.90;13.93;;;7.40;99.90;;;;;;6241826;23;20416;-61
2023/12/14 03:43:42;;;;;;;34.75;13.45;;;7.50;99.90;;;;;;6240828;23;20039;-62
2023/12/14 03:46:08;;;;;;;33.50;11.95;;;7.50;99.90;;;;;;6242822;23;20812;-62
2023/12/14 03:48:33;;;;;;;32.60;13.23;;;7.40;99.90;;;;;;6240594;22;20004;-62
2023/12/14 03:51:03;;;;;;;30.63;12.00;;;7.50;99.90;;;;;;6242170;23;20004;-61
2023/12/14 03:53:29;;;;;;;24.63;11.95;;;7.40;99.90;;;;;;6242081;23;20008;-61
2023/12/14 03:55:55;;;;;;;24.63;10.48;;;7.40;99.90;;;;;;6242311;23;20007;-62
2023/12/14 03:58:20;;;;;;;28.02;10.63;;;7.50;99.90;;;;;;6241927;22;20010;-62
2023/12/14 04:00:46;;;;;;;20.85;10.30;;;7.40;99.90;;;;;;6241659;23;20339;-62
2023/12/14 04:03:12;;;;;;;19.52;10.20;;;7.40;99.90;;;;;;6241779;23;20075;-62
2023/12/14 04:05:38;;;;;;;24.42;11.45;;;7.40;99.90;;;;;;6242340;23;20467;-62
2023/12/14 04:08:04;;;;;;;28.50;12.07;;;7.40;99.90;;;;;;6242468;22;20004;-62
2023/12/14 04:10:30;;;;;;;28.75;10.52;;;7.40;99.90;;;;;;6242376;23;20015;-62
2023/12/14 04:12:56;;;;;;;28.55;10.50;;;7.40;99.90;;;;;;6242118;23;20424;-62
2023/12/14 04:15:21;;;;;;;25.52;11.55;;;7.40;99.90;;;;;;6241144;23;20016;-62
2023/12/14 04:17:47;;;;;;;23.38;10.15;;;7.40;99.90;;;;;;6241520;22;20007;-62
2023/12/14 04:20:15;;;;;;;25.15;10.60;;;7.30;99.90;;;;;;6241748;23;20032;-62
2023/12/14 04:22:41;;;;;;;24.45;11.10;;;7.40;99.90;;;;;;6241587;23;20037;-62
2023/12/14 04:25:07;;;;;;;27.17;11.40;;;7.30;99.90;;;;;;6241784;23;20011;-62
2023/12/14 04:27:33;;;;;;;23.17;10.80;;;7.30;99.90;;;;;;6241752;22;20008;-61
2023/12/14 04:29:58;;;;;;;27.73;10.75;;;7.30;99.90;;;;;;6242082;23;20451;-62
2023/12/14 04:32:24;;;;;;;21.88;11.35;;;7.30;99.90;;;;;;6241363;23;20488;-62
2023/12/14 04:34:50;;;;;;;26.58;11.55;;;7.20;99.90;;;;;;6242146;23;20004;-62
2023/12/14 04:37:15;;;;;;;24.73;10.63;;;7.20;99.90;;;;;;6241806;22;20114;-62
2023/12/14 04:39:41;;;;;;;22.20;9.80;;;7.20;99.90;;;;;;6241585;23;20083;-62
2023/12/14 04:42:06;;;;;;;18.17;8.98;;;7.20;99.90;;;;;;6241528;23;20075;-62
2023/12/14 04:44:32;;;;;;;19.80;9.73;;;7.20;99.90;;;;;;6214745;23;20012;-62
2023/12/14 04:46:57;;;;;;;21.60;9.35;;;7.20;99.90;;;;;;6242088;22;20012;-62
2023/12/14 04:49:23;;;;;;;18.83;9.30;;;7.20;99.90;;;;;;6241935;23;20004;-61
2023/12/14 04:51:49;;;;;;;18.50;7.75;;;7.20;99.90;;;;;;6241462;23;20071;-62
2023/12/14 04:54:14;;;;;;;20.13;8.02;;;7.10;99.90;;;;;;6241477;23;20067;-62
2023/12/14 04:56:41;;;;;;;17.50;8.25;;;7.00;99.90;;;;;;6241421;22;20000;-62
2023/12/14 04:59:07;;;;;;;15.45;6.90;;;7.00;99.90;;;;;;6241136;23;20004;-62
2023/12/14 05:01:32;;;;;;;13.50;6.65;;;7.00;99.90;;;;;;6241747;23;20637;-62
2023/12/14 05:03:58;;;;;;;19.70;5.75;;;7.00;99.90;;;;;;6241561;23;20004;-62
2023/12/14 05:06:23;;;;;;;11.60;5.70;;;7.00;99.90;;;;;;6241875;23;20121;-62
2023/12/14 05:08:49;;;;;;;10.10;4.70;;;6.90;99.90;;;;;;6241916;22;20008;-62
2023/12/14 05:11:15;;;;;;;8.52;4.40;;;6.90;99.90;;;;;;6241903;23;20001;-61
2023/12/14 05:13:41;;;;;;;8.60;4.70;;;6.90;99.90;;;;;;6240140;23;20010;-62
2023/12/14 05:16:12;;;;;;;9.75;4.35;;;6.90;99.90;;;;;;6241527;23;20004;-62
2023/12/14 05:18:37;;;;;;;6.93;3.50;;;6.80;99.90;;;;;;6241536;22;20043;-61
2023/12/14 05:21:03;;;;;;;7.72;4.20;;;6.90;99.90;;;;;;6241676;23;19996;-62
2023/12/14 05:23:29;;;;;;;6.90;3.40;;;6.80;99.90;;;;;;6241728;23;19997;-61
2023/12/14 05:25:54;;;;;;;6.82;3.22;;;6.80;99.90;;;;;;6240542;23;20126;-61
2023/12/14 05:28:20;;;;;;;4.90;3.10;;;6.80;99.90;;;;;;6238936;22;20059;-62
2023/12/14 05:30:45;;;;;;;5.63;2.45;;;6.70;99.90;;;;;;6240277;23;20011;-61
2023/12/14 05:33:11;;;;;;;4.88;2.65;;;6.80;99.90;;;;;;6241370;23;20035;-62
2023/12/14 05:35:37;;;;;;;6.63;3.08;;;6.70;99.90;;;;;;6241729;23;20091;-60
2023/12/14 05:38:02;;;;;;;5.15;3.10;;;6.70;99.90;;;;;;6241763;22;20323;-61
2023/12/14 05:40:28;;;;;;;6.70;3.15;;;6.70;99.90;;;;;;6241371;23;20004;-62
2023/12/14 05:42:54;;;;;;;6.00;3.33;;;6.70;99.90;;;;;;6241070;23;20012;-61
2023/12/14 05:45:20;;;;;;;4.80;2.75;;;6.70;99.90;;;;;;6241965;23;20418;-62
2023/12/14 05:47:46;;;;;;;6.53;3.17;;;6.70;99.90;;;;;;6241527;22;20039;-61
2023/12/14 05:50:12;;;;;;;8.43;4.65;;;6.60;99.90;;;;;;6242330;23;20086;-62
2023/12/14 05:52:38;;;;;;;6.13;3.50;;;6.70;99.90;;;;;;6243208;23;20004;-62
2023/12/14 05:55:04;;;;;;;10.93;3.72;;;6.70;99.90;;;;;;6242923;23;20395;-61
2023/12/14 05:57:30;;;;;;;7.20;3.88;;;6.70;99.90;;;;;;6242985;22;19996;-62
2023/12/14 05:59:56;;;;;;;7.72;4.07;;;6.70;99.90;;;;;;6242890;23;20360;-61
2023/12/14 06:02:22;;;;;;;8.00;4.45;;;6.70;99.90;;;;;;6243383;23;20011;-62
2023/12/14 06:04:48;;;;;;;8.55;4.38;;;6.60;99.90;;;;;;6242921;23;20091;-62
2023/12/14 06:07:17;;;;;;;10.07;4.28;;;6.60;99.90;;;;;;6243196;22;19996;-61
2023/12/14 06:09:42;;;;;;;12.70;4.75;;;6.70;99.90;;;;;;6243216;23;20008;-61
2023/12/14 06:12:08;;;;;;;11.82;5.03;;;6.60;99.90;;;;;;6242226;23;20012;-61
2023/12/14 06:14:34;;;;;;;8.63;4.22;;;6.60;99.90;;;;;;6242950;23;20004;-61
2023/12/14 06:16:59;;;;;;;8.50;4.22;;;6.60;99.90;;;;;;6243138;22;20004;-60
2023/12/14 06:19:25;;;;;;;7.15;4.13;;;6.50;99.90;;;;;;6243862;23;20008;-61
2023/12/14 06:21:50;;;;;;;9.93;4.75;;;6.50;99.90;;;;;;6243421;23;20504;-62
2023/12/14 06:24:16;;;;;;;8.23;4.57;;;6.60;99.90;;;;;;6243467;23;20122;-61
2023/12/14 06:26:43;;;;;;;8.00;4.18;;;6.60;99.90;;;;;;6243824;22;20027;-62
2023/12/14 06:29:09;;;;;;;9.65;4.85;;;6.50;99.90;;;;;;6243796;23;20452;-62
2023/12/14 06:31:34;;;;;;;10.10;5.80;;;6.50;99.90;;;;;;6244149;23;20420;-62
2023/12/14 06:34:03;;;;;;;11.02;5.43;;;6.50;99.90;;;;;;6214960;23;20000;-62
2023/12/14 06:36:29;;;;;;;12.13;6.25;;;6.50;99.90;;;;;;6243870;23;20004;-61
2023/12/14 06:38:55;;;;;;;14.30;7.22;;;6.50;99.90;;;;;;6243183;22;20024;-62
2023/12/14 06:41:25;;;;;;;15.88;6.93;;;6.40;99.90;;;;;;6242680;23;20000;-62
2023/12/14 06:43:51;;;;;;;16.52;6.88;;;6.50;99.90;;;;;;6243859;23;20008;-61
2023/12/14 06:46:17;;;;;;;14.30;6.38;;;6.50;99.90;;;;;;6243090;23;20111;-62
2023/12/14 06:48:43;;;;;;;16.40;7.07;;;6.50;99.90;;;;;;6243430;22;20386;-62
2023/12/14 06:51:09;;;;;;;14.30;6.85;;;6.40;99.90;;;;;;6244010;23;20075;-62
2023/12/14 06:53:35;;;;;;;15.15;7.35;;;6.50;99.90;;;;;;6243475;23;20421;-63
2023/12/14 06:56:01;;;;;;;14.52;7.70;;;6.40;99.90;;;;;;6242925;23;20000;-64
2023/12/14 06:58:27;;;;;;;16.00;8.10;;;6.40;99.90;;;;;;6243604;22;20072;-63
2023/12/14 07:00:52;;;;;;;17.92;8.38;;;6.40;99.90;;;;;;6242641;23;20017;-62
2023/12/14 07:03:18;;;;;;;21.10;8.55;;;6.40;99.90;;;;;;6242910;23;20004;-62
2023/12/14 07:05:44;;;;;;;15.65;7.45;;;6.40;99.90;;;;;;6243240;23;20005;-63
2023/12/14 07:08:09;;;;;;;16.38;7.30;;;6.30;99.90;;;;;;6242863;22;20328;-61
2023/12/14 07:10:35;;;;;;;14.38;6.65;;;6.30;99.90;;;;;;6243426;23;20027;-59
2023/12/14 07:13:00;;;;;;;18.80;7.68;;;6.30;99.90;;;;;;6243374;23;20046;-63
2023/12/14 07:15:26;;;;;;;17.00;7.45;;;6.30;99.90;;;;;;6242697;23;20418;-59
2023/12/14 07:17:51;;;;;;;16.30;7.70;;;6.30;99.90;;;;;;6242434;22;20464;-62
2023/12/14 07:20:17;;;;;;;14.73;6.80;;;6.30;99.90;;;;;;6243349;23;20007;-60
2023/12/14 07:22:43;;;;;;;16.63;7.82;;;6.20;99.90;;;;;;6242294;23;20007;-59
2023/12/14 07:25:08;;;;;;;17.48;8.00;;;6.20;99.90;;;;;;6243139;23;20395;-61
2023/12/14 07:27:34;;;;;;;17.15;8.02;;;6.20;99.90;;;;;;6241175;22;20014;-62
2023/12/14 07:30:00;;;;;;;21.40;8.43;;;6.20;99.90;;;;;;6243188;23;20054;-60
2023/12/14 07:32:26;;;;;;;20.40;8.60;;;6.20;99.90;;;;;;6243368;23;20000;-58
2023/12/14 07:34:52;;;;;;;14.82;7.72;;;6.20;99.90;;;;;;6243448;23;20008;-62
2023/12/14 07:37:18;;;;;;;20.75;7.82;;;6.20;99.90;;;;;;6241328;22;20001;-60
2023/12/14 07:39:43;;;;;;;22.33;8.63;;;6.20;99.90;;;;;;6243150;23;20008;-62
2023/12/14 07:42:09;;;;;;;23.20;10.52;;;6.20;99.90;;;;;;6242887;23;20328;-60
2023/12/14 07:44:35;;;;;;;21.10;9.85;;;6.20;99.90;;;;;;6243024;23;20054;-61
2023/12/14 07:47:02;;;;;;;21.65;10.63;;;6.20;99.90;;;;;;6243322;22;20018;-62
2023/12/14 07:49:27;;;;;;;28.52;10.55;;;6.20;99.90;;;;;;6243263;23;20079;-59
2023/12/14 07:51:53;;;;;;;21.80;9.95;;;6.20;99.90;;;;;;6241111;23;20475;-62
2023/12/14 07:54:19;;;;;;;25.70;11.50;;;6.20;99.90;;;;;;6242502;23;20000;-59
2023/12/14 07:56:45;;;;;;;28.45;11.98;;;6.20;99.90;;;;;;6242222;22;20043;-61
2023/12/14 07:59:11;;;;;;;28.88;12.30;;;6.20;99.90;;;;;;6243102;23;20000;-60
2023/12/14 08:01:37;;;;;;;29.67;13.20;;;6.10;99.90;;;;;;6243323;23;19996;-59
2023/12/14 08:04:03;;;;;;;30.63;13.10;;;6.20;99.90;;;;;;6243288;23;20004;-58
2023/12/14 08:06:29;;;;;;;27.83;12.95;;;6.10;99.90;;;;;;6241953;23;20023;-59
2023/12/14 08:08:57;;;;;;;29.63;14.13;;;6.10;99.90;;;;;;6242622;22;20004;-60
2023/12/14 08:11:24;;;;;;;26.35;13.05;;;6.10;99.90;;;;;;6242588;23;20035;-61
2023/12/14 08:13:49;;;;;;;26.98;11.88;;;6.10;99.90;;;;;;6239531;23;20083;-61
2023/12/14 08:16:17;;;;;;;27.40;12.63;;;6.00;99.90;;;;;;6242749;23;20042;-61
2023/12/14 08:18:45;;;;;;;25.88;11.23;;;6.10;99.90;;;;;;6242560;22;20054;-58
2023/12/14 08:21:11;;;;;;;22.13;11.60;;;6.10;99.90;;;;;;6241634;23;20049;-59
2023/12/14 08:23:37;;;;;;;29.50;10.32;;;6.10;99.90;;;;;;6241279;23;20028;-62
2023/12/14 08:26:02;;;;;;;22.38;10.30;;;6.20;99.90;;;;;;6240708;23;20028;-62
2023/12/14 08:28:28;;;;;;;25.23;11.65;;;6.10;99.90;;;;;;6242016;22;20095;-59
2023/12/14 08:30:54;;;;;;;26.13;11.27;;;6.20;99.90;;;;;;6242033;23;20007;-63
2023/12/14 08:33:19;;;;;;;26.63;11.77;;;6.10;99.90;;;;;;6242027;23;20004;-60
2023/12/14 08:35:45;;;;;;;28.98;11.85;;;6.10;99.90;;;;;;6241777;23;20056;-62
2023/12/14 08:38:11;;;;;;;25.40;10.95;;;6.10;99.90;;;;;;6241276;22;20000;-62
2023/12/14 08:40:37;;;;;;;29.15;11.77;;;6.10;99.90;;;;;;6240787;23;20440;-59
2023/12/14 08:43:03;;;;;;;24.50;11.85;;;6.10;99.90;;;;;;6241600;23;20019;-61
2023/12/14 08:45:35;;;;;;;25.25;11.90;;;6.10;99.90;;;;;;5107146;27;20439;-62
2023/12/14 08:48:00;;;;;;;28.45;12.27;;;6.20;99.90;;;;;;5101744;28;20151;-61
2023/12/14 08:50:26;;;;;;;22.65;9.75;;;6.20;99.90;;;;;;5100870;28;20024;-61
2023/12/14 08:52:52;;;;;;;24.75;10.30;;;6.20;99.90;;;;;;5103594;28;20020;-62
2023/12/14 08:55:18;;;;;;;22.23;10.23;;;6.30;99.90;;;;;;5105424;28;20713;-62
2023/12/14 08:57:44;;;;;;;21.23;10.65;;;6.20;99.90;;;;;;5099083;28;20107;-64
2023/12/14 09:00:10;;;;;;;23.48;10.32;;;6.20;99.90;;;;;;5097876;28;20050;-62
2023/12/14 09:02:36;;;;;;;21.98;10.35;;;6.20;99.90;;;;;;5101881;28;20053;-62
2023/12/14 09:05:02;;;;;;;20.85;10.50;;;6.20;99.90;;;;;;5101400;28;20024;-61
2023/12/14 09:07:28;;;;;;;24.08;9.80;;;6.20;99.90;;;;;;5101622;28;20114;-62
2023/12/14 09:09:54;;;;;;;20.70;10.05;;;6.20;99.90;;;;;;5099170;28;20020;-60
2023/12/14 09:12:19;;;;;;;21.30;10.50;;;6.10;99.90;;;;;;5100670;28;20061;-63
2023/12/14 09:14:45;;;;;;;23.42;11.32;;;6.20;99.90;;;;;;5101095;28;20028;-62
2023/12/14 09:17:10;;;;;;;21.75;10.13;;;6.10;99.90;;;;;;5099287;28;20033;-62
2023/12/14 09:19:36;;;;;;;22.38;10.32;;;6.10;99.90;;;;;;5099618;28;20417;-61
2023/12/14 09:22:01;;;;;;;22.85;11.48;;;6.10;99.90;;;;;;5100489;28;20024;-60
2023/12/14 09:24:28;;;;;;;25.83;11.75;;;6.10;99.90;;;;;;5102121;28;20154;-60
2023/12/14 09:26:54;;;;;;;24.77;10.02;;;6.20;99.90;;;;;;5099052;28;20157;-62
2023/12/14 09:29:19;;;;;;;28.70;11.63;;;6.10;99.90;;;;;;5101640;28;20106;-62
2023/12/14 09:31:47;;;;;;;27.35;11.27;;;6.10;99.90;;;;;;5097319;28;20016;-63
2023/12/14 09:34:13;;;;;;;21.38;11.35;;;6.10;99.90;;;;;;5102641;28;20073;-59
2023/12/14 09:36:39;;;;;;;26.17;11.13;;;6.10;99.90;;;;;;5098994;28;20039;-61
2023/12/14 09:39:05;;;;;;;29.35;11.65;;;6.00;99.90;;;;;;5100285;28;20116;-60
2023/12/14 09:41:31;;;;;;;24.42;10.85;;;6.00;99.90;;;;;;5096839;28;20070;-58
2023/12/14 09:43:59;;;;;;;28.88;10.82;;;6.10;99.90;;;;;;5098713;28;20031;-61
2023/12/14 09:46:27;;;;;;;21.10;10.15;;;6.10;99.90;;;;;;5099931;28;20023;-59
2023/12/14 09:48:54;;;;;;;24.05;9.75;;;6.10;99.90;;;;;;5100934;28;20467;-62
2023/12/14 09:51:20;;;;;;;27.88;11.85;;;6.00;99.90;;;;;;5102870;28;20020;-61
2023/12/14 09:53:46;;;;;;;18.95;9.38;;;6.00;99.90;;;;;;5100110;28;20031;-60
2023/12/14 09:56:11;;;;;;;25.95;9.20;;;6.00;99.90;;;;;;5088890;28;20024;-62
2023/12/14 09:58:37;;;;;;;18.35;8.68;;;5.90;99.90;;;;;;5087627;28;20043;-60
2023/12/14 10:01:04;;;;;;;27.20;9.75;;;5.90;99.90;;;;;;5084583;28;20077;-62
2023/12/14 10:03:31;;;;;;;25.30;9.57;;;5.90;99.90;;;;;;5087410;28;20035;-60
2023/12/14 10:05:58;;;;;;;24.73;10.00;;;5.90;99.90;;;;;;5090811;28;20028;-60
2023/12/14 10:08:25;;;;;;;29.25;10.88;;;6.00;99.90;;;;;;5083436;28;20071;-61
2023/12/14 10:10:52;;;;;;;29.15;10.95;;;6.00;99.90;;;;;;5087177;28;20032;-58
2023/12/14 10:13:19;;;;;;;25.63;10.93;;;6.10;99.90;;;;;;5081175;28;20028;-62
2023/12/14 10:15:46;;;;;;;24.85;9.70;;;6.10;99.90;;;;;;5087665;28;20023;-62
2023/12/14 10:18:22;;;;;;;30.05;11.07;;;6.10;99.90;;;;;;5086713;28;20039;-60
2023/12/14 10:20:47;;;;;;;22.63;9.82;;;6.20;99.90;;;;;;5086399;28;20024;-62
2023/12/14 10:23:13;;;;;;;25.13;10.57;;;6.10;99.90;;;;;;5088110;28;20390;-60
2023/12/14 10:25:38;;;;;;;20.55;10.18;;;6.10;99.90;;;;;;5085938;28;20110;-62
2023/12/14 10:28:04;;;;;;;26.77;11.00;;;6.20;99.90;;;;;;5084720;28;20031;-59
2023/12/14 10:30:30;;;;;;;28.02;11.32;;;6.20;99.90;;;;;;5083703;28;20115;-64
2023/12/14 10:32:57;;;;;;;32.05;11.40;;;6.20;99.90;;;;;;5086828;28;20028;-63
2023/12/14 10:35:23;;;;;;;26.73;10.75;;;6.10;99.90;;;;;;5088925;28;20082;-62
2023/12/14 10:37:51;;;;;;;27.63;12.45;;;6.20;99.90;;;;;;5088528;28;20494;-60
2023/12/14 10:40:17;;;;;;;23.88;10.57;;;6.10;99.90;;;;;;5084053;28;20024;-62
2023/12/14 10:42:44;;;;;;;27.85;11.35;;;6.10;99.90;;;;;;5085029;28;20039;-64
2023/12/14 10:45:13;;;;;;;32.38;14.38;;;6.00;99.90;;;;;;5084095;28;20073;-60
2023/12/14 10:47:50;;;;;;;36.10;15.18;;;6.10;99.90;;;;;;5087384;28;20027;-61
2023/12/14 10:50:16;;;;;;;32.65;13.77;;;6.00;99.90;;;;;;5087045;28;20016;-59
2023/12/14 10:52:42;;;;;;;41.05;15.93;;;6.00;99.90;;;;;;5089324;28;20020;-61
2023/12/14 10:55:16;;;;;;;37.60;13.82;;;5.90;99.90;;;;;;5087118;28;20024;-61
2023/12/14 10:57:41;;;;;;;46.25;17.17;;;5.90;99.90;;;;;;5086273;28;20485;-61
2023/12/14 11:00:08;;;;;;;50.95;17.98;;;5.80;99.90;;;;;;5082849;28;20028;-61
2023/12/14 11:02:46;;;;;;;47.22;17.75;;;5.90;99.90;;;;;;5085699;28;20032;-58
2023/12/14 11:05:15;;;;;;;45.95;16.73;;;5.80;99.90;;;;;;5084276;28;20482;-61
2023/12/14 11:07:55;;;;;;;50.45;18.10;;;5.80;99.90;;;;;;5085321;28;20020;-61
2023/12/14 11:10:43;;;;;;;40.60;15.07;;;5.80;99.90;;;;;;5083406;28;20040;-61
2023/12/14 11:13:10;;;;;;;41.85;16.88;;;5.80;99.90;;;;;;5080500;28;20032;-59
2023/12/14 11:15:36;;;;;;;42.80;17.60;;;5.70;99.90;;;;;;5081308;28;20036;-63
2023/12/14 11:18:08;;;;;;;45.50;18.02;;;5.80;99.90;;;;;;5084640;28;20144;-64
2023/12/14 11:20:46;;;;;;;45.63;17.05;;;5.80;99.90;;;;;;5085463;28;20081;-62
2023/12/14 11:23:30;;;;;;;41.30;16.00;;;5.80;99.90;;;;;;5086065;28;20024;-62
2023/12/14 11:26:08;;;;;;;38.85;15.80;;;5.80;99.90;;;;;;5087634;28;20024;-63
2023/12/14 11:28:37;;;;;;;50.17;16.83;;;5.90;99.90;;;;;;5080521;28;20099;-62
2023/12/14 11:31:06;;;;;;;41.60;17.08;;;5.90;99.90;;;;;;5081418;28;20513;-63
2023/12/14 11:33:35;;;;;;;40.35;17.92;;;5.90;99.90;;;;;;5084337;28;20020;-62
2023/12/14 11:36:03;;;;;;;44.17;16.10;;;6.00;99.90;;;;;;5084151;28;20020;-63
2023/12/14 11:38:29;;;;;;;38.47;16.63;;;6.00;99.90;;;;;;5087952;28;20447;-64
2023/12/14 11:40:55;;;;;;;35.70;15.90;;;6.00;99.90;;;;;;5089905;28;20039;-62
2023/12/14 11:43:21;;;;;;;36.17;15.68;;;6.00;99.90;;;;;;5084515;28;20386;-62
2023/12/14 11:45:47;;;;;;;39.83;15.98;;;5.90;99.90;;;;;;5083408;28;20035;-61
2023/12/14 11:48:13;;;;;;;42.33;16.27;;;6.00;99.90;;;;;;5083359;28;20702;-62
2023/12/14 11:50:40;;;;;;;39.53;16.92;;;6.00;99.90;;;;;;5085289;28;20028;-60
2023/12/14 11:53:07;;;;;;;42.60;17.55;;;6.10;99.90;;;;;;5084286;28;20107;-59
2023/12/14 11:55:36;;;;;;;38.17;16.33;;;6.00;99.90;;;;;;5087976;28;20058;-59
2023/12/14 11:58:03;;;;;;;38.72;15.93;;;6.10;99.90;;;;;;5085877;28;20066;-64
2023/12/14 12:00:30;;;;;;;41.13;16.50;;;6.10;99.90;;;;;;5093224;28;20127;-62
2023/12/14 12:03:15;;;;;;;37.13;15.20;;;6.00;99.90;;;;;;5087993;28;20085;-54
2023/12/14 12:05:45;;;;;;;36.17;15.73;;;5.90;99.90;;;;;;5089698;28;20020;-52
2023/12/14 12:08:12;;;;;;;38.15;16.08;;;6.00;99.90;;;;;;5087958;28;20533;-52
2023/12/14 12:10:39;;;;;;;34.92;14.85;;;6.00;99.90;;;;;;5085673;28;20052;-55
2023/12/14 12:13:12;;;;;;;32.33;14.43;;;6.00;99.90;;;;;;5090178;28;20474;-53
2023/12/14 12:15:38;;;;;;;39.30;16.00;;;5.90;99.90;;;;;;5086694;28;20058;-55
2023/12/14 12:18:06;;;;;;;34.00;14.95;;;6.00;99.90;;;;;;5087768;28;20056;-53
2023/12/14 12:20:32;;;;;;;31.58;14.40;;;5.90;99.90;;;;;;5088749;28;20020;-52
2023/12/14 12:22:58;;;;;;;31.40;14.07;;;5.90;99.90;;;;;;5088475;28;20481;-53
2023/12/14 12:25:24;;;;;;;27.73;12.05;;;5.90;99.90;;;;;;5085621;28;20028;-58
2023/12/14 12:27:49;;;;;;;27.88;12.38;;;5.80;99.90;;;;;;5089636;28;20127;-53
2023/12/14 12:30:15;;;;;;;40.00;14.70;;;5.90;99.90;;;;;;5089677;28;21884;-61
2023/12/14 12:32:41;;;;;;;28.83;13.43;;;5.80;99.90;;;;;;5089731;28;20407;-56
2023/12/14 12:35:08;;;;;;;28.52;13.02;;;5.80;99.90;;;;;;5089760;28;20079;-55
2023/12/14 12:37:33;;;;;;;35.70;15.95;;;5.80;99.90;;;;;;5089463;28;20028;-62
2023/12/14 12:39:59;;;;;;;29.88;13.15;;;5.90;99.90;;;;;;5086999;28;20024;-55